Quick Links (Output Below):   Max & Min Temps   /   Climate Reports   /   Zone Forecasts
River Forecasts   /   Forestry Forecasts   /   Aviation Forecasts   /   Radars   /   Features

Terminal Aerodrome Forecast (Arkadelphia)

Pick a Site:
Arkadelphia | El Dorado | Fayetteville | Fort Smith | Harrison | Highfill | Hot Springs | Jonesboro
Little Rock | Monticello | Mountain Home | Pine Bluff | Texarkana
 Forecast 

KADF 221121Z 2212/2312 14004KT P6SM VCSH BKN012 OVC020
      TEMPO 2212/2216 5SM -RADZ BR BKN006
     FM221600 18008KT P6SM VCSH SCT008 OVC012
      TEMPO 2216/2220 BKN008
     FM230300 28007KT P6SM SCT015 BKN025
     FM230600 VRB05KT P6SM SCT025 BKN250=


 Latest METARs (Observations) 
How to Decode METARs
12Z KADF 221156Z AUTO 18003KT 7SM OVC006 09/09 A2975 RMK AO2 56018
         T00880088 10088 20055 SLP090
         
11Z KADF 221056Z AUTO 16005KT 9SM OVC006 09/09 A2976 RMK AO2 T00880088
         SLP091
         
10Z KADF 220956Z AUTO 14003KT 9SM OVC008 08/08 A2977 RMK AO2 T00830083
         SLP096
         
09Z KADF 220856Z AUTO 16003KT 5SM BR SCT021 SCT026 OVC032 08/08 A2981
         RMK AO2 56025 T00770077 SLP108
         
08Z KADF 220756Z AUTO 00000KT 8SM FEW020 BKN036 07/07 A2982 RMK AO2
         T00660066 BKN V OVC SLP112
         
07Z KADF 220656Z AUTO 00000KT 8SM OVC024 06/06 A2986 RMK AO2 T00610061
         SLP125
         
06Z KADF 220556Z AUTO 00000KT 8SM BKN045 OVC065 06/06 A2989 RMK AO2
         55010 T00550055 10083 20038 401381005 OVC V BKN SLP134
         
05Z KADF 220456Z AUTO 02003KT 6SM BR CLR 04/04 A2986 RMK AO2 T00380038
         SLP126
         
04Z KADF 220356Z AUTO 00000KT 8SM CLR 06/06 A2988 RMK AO2 T00550055
         SLP134
         
03Z KADF 220256Z AUTO 03003KT 10SM SCT037 07/07 A2991 RMK AO2 58009
         T00660066 SLP143
         
***** Today's Observations (Above) *****


Back to Main Page
http://www.srh.noaa.gov/lzk/qfcst.php

USA.gov is the U.S. government's official web portal to all federal, state and local government web resources and services.